Time;durP1;ratioP1;P1;durP2;ratioP2;P2;SDS_P1;SDS_P2;PMS_P1;PMS_P2;Temp;Humidity;BMP_temperature;BMP_pressure;BME280_temperature;BME280_humidity;BME280_pressure;Samples;Min_cycle;Max_cycle;Signal;HPM_P1;HPM_P2
2021/12/16 00:06:09;;;;;;;;;;;-0.40;88.60;;;;;;6096627;23;19917;-80
2021/12/16 00:08:50;;;;;;;;;;;-0.40;88.30;;;;;;6069144;23;19952;-80
2021/12/16 00:30:40;;;;;;;;;;;-0.70;87.60;;;;;;6097035;23;19917;-78
2021/12/16 00:35:35;;;;;;;;;;;-0.70;87.40;;;;;;6087893;23;20437;-80
2021/12/16 00:38:02;;;;;;;;;;;-0.70;87.40;;;;;;6068945;23;20403;-81
2021/12/16 00:40:29;;;;;;;;;;;-0.80;88.50;;;;;;6070703;23;19917;-77
2021/12/16 00:43:11;;;;;;;;;;;-0.80;88.10;;;;;;6090828;23;19921;-81
2021/12/16 00:45:45;;;;;;;;;;;-0.80;87.70;;;;;;6096098;23;19917;-79
2021/12/16 00:56:01;;;;;;;;;;;-0.80;87.90;;;;;;6098156;23;19918;-78
2021/12/16 00:58:34;;;;;;;;;;;-0.80;87.70;;;;;;6085339;23;19946;-78
2021/12/16 01:01:11;;;;;;;;;;;-0.80;87.70;;;;;;6068256;23;20445;-79
2021/12/16 01:55:20;;;;;;;;;;;-1.00;90.00;;;;;;6022413;23;19918;-80
2021/12/16 01:57:52;;;;;;;;;;;-1.00;89.60;;;;;;6059948;23;20514;-79
2021/12/16 02:00:25;;;;;;;;;;;-1.00;89.30;;;;;;6103129;23;19929;-79
2021/12/16 02:02:59;;;;;;;;;;;-1.10;88.90;;;;;;6102109;23;19921;-80
2021/12/16 02:10:35;;;;;;;;;;;-1.10;88.40;;;;;;6126484;23;19925;-81
2021/12/16 02:37:32;;;;;;;;;;;-1.20;90.10;;;;;;6125312;23;19917;-77
2021/12/16 02:40:00;;;;;;;;;;;-1.20;89.70;;;;;;6128177;23;19920;-77
2021/12/16 02:43:20;;;;;;;;;;;-1.20;89.40;;;;;;6103241;23;19916;-80
2021/12/16 02:50:53;;;;;;;;;;;-1.20;89.80;;;;;;6127571;23;19916;-81
2021/12/16 02:53:20;;;;;;;;;;;-1.20;90.00;;;;;;6126447;23;19924;-80
2021/12/16 02:55:47;;;;;;;;;;;-1.20;89.90;;;;;;6102521;23;19963;-79
2021/12/16 02:58:15;;;;;;;;;;;-1.20;90.00;;;;;;6088824;23;19928;-78
2021/12/16 03:00:43;;;;;;;;;;;-1.20;90.00;;;;;;6068746;23;19917;-80
2021/12/16 03:03:10;;;;;;;;;;;-1.20;90.50;;;;;;6068421;23;19917;-81
2021/12/16 03:05:38;;;;;;;;;;;-1.30;89.80;;;;;;6068162;23;19917;-77
2021/12/16 03:08:06;;;;;;;;;;;-1.30;90.00;;;;;;6066129;23;19918;-81
2021/12/16 03:13:21;;;;;;;;;;;-1.30;89.50;;;;;;6069029;23;19921;-80
2021/12/16 03:18:47;;;;;;;;;;;-1.40;89.20;;;;;;6068938;23;19922;-81
2021/12/16 03:21:14;;;;;;;;;;;-1.40;89.10;;;;;;6068631;23;19917;-78
2021/12/16 03:23:58;;;;;;;;;;;-1.40;89.40;;;;;;6069754;23;19973;-77
2021/12/16 03:29:54;;;;;;;;;;;-1.40;89.10;;;;;;6067647;23;19968;-78
2021/12/16 03:34:39;;;;;;;;;;;-1.40;89.30;;;;;;6069372;23;19969;-81
2021/12/16 03:37:21;;;;;;;;;;;-1.40;89.20;;;;;;6067966;23;20335;-76
2021/12/16 03:39:53;;;;;;;;;;;-1.50;90.00;;;;;;6068857;23;20023;-77
2021/12/16 03:42:46;;;;;;;;;;;-1.50;90.20;;;;;;6068318;23;19921;-79
2021/12/16 03:48:38;;;;;;;;;;;-1.60;90.30;;;;;;6069571;23;19926;-79
2021/12/16 03:51:07;;;;;;;;;;;-1.60;90.40;;;;;;6059885;23;19925;-80
2021/12/16 03:53:34;;;;;;;;;;;-1.60;90.10;;;;;;6070084;23;19921;-77
2021/12/16 03:56:01;;;;;;;;;;;-1.60;89.80;;;;;;6068761;23;19921;-77
2021/12/16 03:58:28;;;;;;;;;;;-1.60;89.40;;;;;;6086087;23;20218;-80
2021/12/16 04:00:58;;;;;;;;;;;-1.60;89.10;;;;;;6126660;23;19928;-79
2021/12/16 04:03:25;;;;;;;;;;;-1.60;89.30;;;;;;6100753;23;20330;-76
2021/12/16 04:05:52;;;;;;;;;;;-1.60;89.00;;;;;;6127101;23;19917;-78
2021/12/16 04:08:19;;;;;;;;;;;-1.60;89.10;;;;;;6104334;23;19944;-77
2021/12/16 04:11:06;;;;;;;;;;;-1.70;89.30;;;;;;6126629;23;20306;-80
2021/12/16 04:13:40;;;;;;;;;;;-1.70;89.30;;;;;;6126071;23;19920;-80
2021/12/16 04:16:07;;;;;;;;;;;-1.70;89.40;;;;;;6102679;23;19967;-80
2021/12/16 04:18:34;;;;;;;;;;;-1.70;89.30;;;;;;6100239;23;19979;-78
2021/12/16 04:21:01;;;;;;;;;;;-1.70;89.40;;;;;;6101491;23;19920;-79
2021/12/16 04:23:28;;;;;;;;;;;-1.70;89.40;;;;;;6100979;23;19955;-77
2021/12/16 04:25:55;;;;;;;;;;;-1.70;89.00;;;;;;6126815;23;19916;-80
2021/12/16 04:28:24;;;;;;;;;;;-1.70;88.60;;;;;;6125216;23;19973;-78
2021/12/16 04:30:52;;;;;;;;;;;-1.70;88.60;;;;;;6103140;23;19920;-79
2021/12/16 04:33:19;;;;;;;;;;;-1.70;89.40;;;;;;6100417;23;19921;-77
2021/12/16 04:35:46;;;;;;;;;;;-1.70;89.30;;;;;;6102564;23;19921;-77
2021/12/16 04:38:14;;;;;;;;;;;-1.70;89.80;;;;;;6125392;23;19949;-79
2021/12/16 04:40:43;;;;;;;;;;;-1.80;90.60;;;;;;6101077;23;19920;-81
2021/12/16 04:43:18;;;;;;;;;;;-1.80;90.30;;;;;;6100450;23;19925;-78
2021/12/16 04:45:45;;;;;;;;;;;-1.80;90.00;;;;;;6100315;23;19917;-76
2021/12/16 04:48:12;;;;;;;;;;;-1.80;90.20;;;;;;6124757;23;19997;-78
2021/12/16 04:50:39;;;;;;;;;;;-1.80;90.00;;;;;;6099281;23;19987;-80
2021/12/16 04:53:06;;;;;;;;;;;-1.80;89.40;;;;;;6125167;23;19921;-78
2021/12/16 04:55:33;;;;;;;;;;;-1.80;89.30;;;;;;6124280;23;19976;-78
2021/12/16 04:58:00;;;;;;;;;;;-1.80;89.10;;;;;;6100467;23;19964;-80
2021/12/16 05:00:26;;;;;;;;;;;-1.80;88.90;;;;;;6097845;23;19917;-77
2021/12/16 05:02:53;;;;;;;;;;;-1.80;89.50;;;;;;6123997;23;19916;-80
2021/12/16 05:05:21;;;;;;;;;;;-1.80;89.50;;;;;;6124325;23;19921;-77
2021/12/16 05:07:48;;;;;;;;;;;-1.90;89.30;;;;;;6124835;23;20472;-79
2021/12/16 05:10:16;;;;;;;;;;;-1.90;89.50;;;;;;6101858;23;19944;-80
2021/12/16 05:12:46;;;;;;;;;;;-1.80;89.80;;;;;;6099918;23;20324;-79
2021/12/16 05:15:15;;;;;;;;;;;-1.80;89.30;;;;;;6126369;23;19916;-80
2021/12/16 05:17:45;;;;;;;;;;;-1.80;90.00;;;;;;6125449;23;19916;-77
2021/12/16 05:20:15;;;;;;;;;;;-1.80;89.50;;;;;;6101751;23;19976;-80
2021/12/16 05:28:00;;;;;;;;;;;-1.80;88.90;;;;;;6124917;23;19916;-78
2021/12/16 05:30:27;;;;;;;;;;;-1.90;89.00;;;;;;6099504;23;19983;-80
2021/12/16 05:32:54;;;;;;;;;;;-1.90;89.70;;;;;;6100216;23;20357;-79
2021/12/16 05:35:22;;;;;;;;;;;-1.90;89.00;;;;;;6100167;23;20016;-77
2021/12/16 05:37:49;;;;;;;;;;;-1.90;88.60;;;;;;6100302;23;20306;-79
2021/12/16 05:40:17;;;;;;;;;;;-1.90;89.10;;;;;;6102038;23;19921;-79
2021/12/16 05:42:44;;;;;;;;;;;-1.90;89.50;;;;;;6099110;23;19916;-79
2021/12/16 05:45:11;;;;;;;;;;;-1.90;89.60;;;;;;6100853;23;20334;-80
2021/12/16 05:47:38;;;;;;;;;;;-1.90;89.00;;;;;;6124610;23;19917;-80
2021/12/16 05:50:08;;;;;;;;;;;-1.90;89.40;;;;;;6077729;23;19917;-77
2021/12/16 05:52:35;;;;;;;;;;;-1.90;89.20;;;;;;6124681;23;19921;-77
2021/12/16 05:55:03;;;;;;;;;;;-1.90;88.90;;;;;;6101181;23;19917;-76
2021/12/16 05:57:30;;;;;;;;;;;-2.00;88.60;;;;;;6100110;23;19920;-79
2021/12/16 05:59:57;;;;;;;;;;;-1.90;89.10;;;;;;6121187;23;19925;-78
2021/12/16 06:02:24;;;;;;;;;;;-1.90;89.60;;;;;;6101103;23;19917;-79
2021/12/16 06:04:51;;;;;;;;;;;-1.90;89.70;;;;;;6123263;23;19920;-78
2021/12/16 06:07:19;;;;;;;;;;;-1.90;89.80;;;;;;6101071;23;20290;-78
2021/12/16 06:09:47;;;;;;;;;;;-1.90;89.60;;;;;;6099139;23;19917;-78
2021/12/16 06:12:14;;;;;;;;;;;-1.90;89.20;;;;;;6124356;23;19940;-79
2021/12/16 06:28:16;;;;;;;;;;;-2.00;89.90;;;;;;6127153;23;19917;-78
2021/12/16 06:30:44;;;;;;;;;;;-2.00;89.30;;;;;;6101447;23;19917;-79
2021/12/16 06:33:13;;;;;;;;;;;-2.10;89.20;;;;;;6102708;23;19921;-78
2021/12/16 06:35:41;;;;;;;;;;;-2.10;89.00;;;;;;6102962;23;19924;-78
2021/12/16 06:38:08;;;;;;;;;;;-2.10;88.90;;;;;;6125356;23;19980;-79
2021/12/16 06:40:35;;;;;;;;;;;-2.20;90.80;;;;;;6102248;23;19917;-79
2021/12/16 06:43:03;;;;;;;;;;;-2.20;91.20;;;;;;6101266;23;19968;-79
2021/12/16 06:45:35;;;;;;;;;;;-2.20;91.30;;;;;;6100946;23;19927;-78
2021/12/16 06:48:16;;;;;;;;;;;-2.20;91.10;;;;;;6099925;23;19917;-78
2021/12/16 06:50:57;;;;;;;;;;;-2.20;90.80;;;;;;6101239;23;19917;-80
2021/12/16 06:56:37;;;;;;;;;;;-2.20;90.30;;;;;;6108859;23;20390;-79
2021/12/16 06:59:18;;;;;;;;;;;-2.30;90.30;;;;;;6127273;23;19967;-78
2021/12/16 07:01:59;;;;;;;;;;;-2.30;90.30;;;;;;6102380;23;19921;-78
2021/12/16 07:04:26;;;;;;;;;;;-2.30;90.30;;;;;;6124347;23;20322;-79
2021/12/16 07:06:53;;;;;;;;;;;-2.30;90.20;;;;;;6100601;23;19921;-79
2021/12/16 07:09:20;;;;;;;;;;;-2.20;90.10;;;;;;6126627;23;19968;-78
2021/12/16 07:11:51;;;;;;;;;;;-2.20;90.00;;;;;;6124902;23;19976;-78
2021/12/16 07:14:19;;;;;;;;;;;-2.20;89.80;;;;;;6100261;23;19917;-79
2021/12/16 07:16:47;;;;;;;;;;;-2.20;89.50;;;;;;6101047;23;19917;-78
2021/12/16 07:19:14;;;;;;;;;;;-2.20;89.70;;;;;;6101735;23;19924;-78
2021/12/16 07:21:42;;;;;;;;;;;-2.20;90.20;;;;;;6128189;23;19925;-79
2021/12/16 07:24:10;;;;;;;;;;;-2.20;90.20;;;;;;6101878;23;19920;-77
2021/12/16 07:26:38;;;;;;;;;;;-2.10;90.20;;;;;;6126543;23;19964;-79
2021/12/16 07:29:05;;;;;;;;;;;-2.10;90.00;;;;;;6101158;23;19995;-78
2021/12/16 07:31:33;;;;;;;;;;;-2.10;90.10;;;;;;6101133;23;19923;-78
2021/12/16 07:34:00;;;;;;;;;;;-2.10;89.80;;;;;;6078229;23;19921;-79
2021/12/16 07:36:30;;;;;;;;;;;-2.10;90.00;;;;;;6125656;23;20335;-79
2021/12/16 07:38:57;;;;;;;;;;;-2.00;90.40;;;;;;6126561;23;19924;-78
2021/12/16 07:41:26;;;;;;;;;;;-1.50;90.30;;;;;;6101555;23;19995;-79
2021/12/16 07:46:28;;;;;;;;;;;-0.20;88.20;;;;;;6125362;23;19917;-78
2021/12/16 07:48:55;;;;;;;;;;;0.40;85.90;;;;;;6100932;23;19923;-78
2021/12/16 07:51:22;;;;;;;;;;;1.00;83.50;;;;;;6127436;23;19917;-78
2021/12/16 07:53:49;;;;;;;;;;;1.40;81.10;;;;;;6126215;23;19917;-78
2021/12/16 07:56:16;;;;;;;;;;;1.70;80.60;;;;;;6101792;23;19932;-79
2021/12/16 07:58:43;;;;;;;;;;;1.70;79.20;;;;;;6100399;23;19917;-79
2021/12/16 08:01:10;;;;;;;;;;;1.70;78.60;;;;;;6101412;23;19927;-79
2021/12/16 08:03:38;;;;;;;;;;;1.50;78.80;;;;;;6099542;23;20398;-79
2021/12/16 08:06:09;;;;;;;;;;;1.40;79.50;;;;;;6100080;23;19923;-78
2021/12/16 08:08:36;;;;;;;;;;;1.30;80.60;;;;;;6125182;23;19917;-79
2021/12/16 08:11:04;;;;;;;;;;;1.20;80.30;;;;;;6101508;23;19921;-77
2021/12/16 08:13:31;;;;;;;;;;;1.20;80.80;;;;;;6100438;23;19921;-78
2021/12/16 08:15:59;;;;;;;;;;;1.20;80.80;;;;;;6127838;23;20278;-78
2021/12/16 08:18:26;;;;;;;;;;;1.20;81.50;;;;;;6124641;23;19921;-78
2021/12/16 08:20:53;;;;;;;;;;;1.10;83.60;;;;;;6128257;23;20373;-78
2021/12/16 08:23:20;;;;;;;;;;;1.00;84.90;;;;;;6126803;23;19920;-77
2021/12/16 08:25:47;;;;;;;;;;;1.10;84.60;;;;;;6099288;23;19921;-79
2021/12/16 08:28:14;;;;;;;;;;;1.20;84.70;;;;;;6100798;23;19917;-78
2021/12/16 08:30:43;;;;;;;;;;;1.30;83.70;;;;;;6126536;23;19921;-79
2021/12/16 08:33:12;;;;;;;;;;;1.50;83.90;;;;;;6100672;23;19920;-78
2021/12/16 08:35:40;;;;;;;;;;;1.60;83.30;;;;;;6100723;23;19917;-78
2021/12/16 08:38:08;;;;;;;;;;;1.70;84.10;;;;;;6100963;23;19916;-77
2021/12/16 08:40:35;;;;;;;;;;;1.80;84.60;;;;;;6125265;23;19960;-77
2021/12/16 08:43:02;;;;;;;;;;;1.90;83.80;;;;;;6125150;23;19917;-80
2021/12/16 08:45:30;;;;;;;;;;;2.00;83.80;;;;;;6123622;23;20343;-77
2021/12/16 08:47:58;;;;;;;;;;;2.10;83.30;;;;;;6099365;23;19964;-78
2021/12/16 08:50:33;;;;;;;;;;;2.20;83.20;;;;;;6124608;23;19916;-78
2021/12/16 08:53:01;;;;;;;;;;;2.30;83.40;;;;;;6101895;23;20268;-77
2021/12/16 08:55:29;;;;;;;;;;;2.40;84.20;;;;;;6102530;23;19917;-78
2021/12/16 08:57:56;;;;;;;;;;;2.50;84.50;;;;;;6100338;23;19917;-79
2021/12/16 09:00:26;;;;;;;;;;;2.50;84.10;;;;;;6101806;23;19948;-79
2021/12/16 09:02:53;;;;;;;;;;;2.60;84.40;;;;;;6124814;23;19917;-78
2021/12/16 09:05:20;;;;;;;;;;;2.60;84.90;;;;;;6127262;23;19921;-77
2021/12/16 09:07:48;;;;;;;;;;;2.70;84.80;;;;;;6099915;23;19923;-79
2021/12/16 09:10:22;;;;;;;;;;;2.80;85.30;;;;;;6126621;23;20228;-79
2021/12/16 09:13:02;;;;;;;;;;;2.90;85.50;;;;;;6101972;23;20356;-79
2021/12/16 09:15:31;;;;;;;;;;;3.00;85.00;;;;;;6128485;23;19992;-79
2021/12/16 09:17:58;;;;;;;;;;;3.10;84.60;;;;;;6099797;23;19917;-78
2021/12/16 09:20:25;;;;;;;;;;;3.20;84.50;;;;;;6100022;23;19972;-80
2021/12/16 09:22:52;;;;;;;;;;;3.30;84.50;;;;;;6099467;23;19917;-79
2021/12/16 09:25:20;;;;;;;;;;;3.50;83.90;;;;;;6100767;23;19968;-79
2021/12/16 09:27:47;;;;;;;;;;;3.60;83.30;;;;;;6123529;23;19917;-80
2021/12/16 09:30:15;;;;;;;;;;;3.60;83.80;;;;;;6101952;23;19940;-79
2021/12/16 09:32:44;;;;;;;;;;;3.70;84.40;;;;;;6097944;23;20245;-78
2021/12/16 09:35:12;;;;;;;;;;;3.80;84.20;;;;;;6101911;23;19928;-78
2021/12/16 09:37:41;;;;;;;;;;;3.90;84.60;;;;;;6099926;23;19921;-79
2021/12/16 09:40:10;;;;;;;;;;;4.00;84.80;;;;;;6099179;23;19927;-78
2021/12/16 09:42:37;;;;;;;;;;;4.20;84.30;;;;;;6099247;23;20004;-79
2021/12/16 09:45:08;;;;;;;;;;;4.30;83.10;;;;;;6124330;23;19920;-79
2021/12/16 09:47:36;;;;;;;;;;;4.30;81.50;;;;;;6098456;23;19929;-79
2021/12/16 09:50:04;;;;;;;;;;;4.40;80.90;;;;;;6124056;23;19943;-80
2021/12/16 09:52:31;;;;;;;;;;;4.50;81.20;;;;;;6126417;23;19988;-79
2021/12/16 09:54:58;;;;;;;;;;;4.60;80.80;;;;;;6109248;23;19921;-79
2021/12/16 09:57:25;;;;;;;;;;;4.70;79.50;;;;;;6105493;23;20001;-80
2021/12/16 09:59:52;;;;;;;;;;;4.70;80.30;;;;;;6082523;23;19932;-79
2021/12/16 10:02:20;;;;;;;;;;;4.80;80.60;;;;;;6067847;23;19929;-80
2021/12/16 10:04:48;;;;;;;;;;;5.00;80.90;;;;;;6069033;23;20350;-78
2021/12/16 10:07:18;;;;;;;;;;;5.10;79.80;;;;;;6072253;23;19921;-79
2021/12/16 10:09:46;;;;;;;;;;;5.10;78.80;;;;;;6044260;23;19928;-78
2021/12/16 10:12:17;;;;;;;;;;;5.10;77.60;;;;;;6070880;23;19922;-80
2021/12/16 10:17:24;;;;;;;;;;;5.50;78.40;;;;;;6071660;23;20347;-80
2021/12/16 10:19:55;;;;;;;;;;;5.70;77.00;;;;;;6047711;23;19921;-77
2021/12/16 10:22:32;;;;;;;;;;;5.80;75.60;;;;;;6071390;23;20365;-80
2021/12/16 10:25:17;;;;;;;;;;;6.00;75.70;;;;;;6091920;23;20328;-78
2021/12/16 10:27:51;;;;;;;;;;;6.10;75.10;;;;;;6097108;23;19921;-79
2021/12/16 10:30:18;;;;;;;;;;;6.20;74.30;;;;;;6068619;23;19922;-80
2021/12/16 10:32:46;;;;;;;;;;;6.30;73.70;;;;;;6071932;23;19928;-80
2021/12/16 10:35:16;;;;;;;;;;;6.30;72.40;;;;;;6068257;23;19928;-78
2021/12/16 10:37:46;;;;;;;;;;;6.30;72.00;;;;;;6066571;23;19948;-77
2021/12/16 10:40:35;;;;;;;;;;;6.40;73.20;;;;;;6072666;23;19925;-80
2021/12/16 10:43:10;;;;;;;;;;;6.60;73.20;;;;;;6066189;23;19921;-80
2021/12/16 10:45:45;;;;;;;;;;;6.80;72.50;;;;;;6069188;23;19997;-80
2021/12/16 10:48:20;;;;;;;;;;;7.00;72.10;;;;;;6103616;23;19925;-80
2021/12/16 10:50:53;;;;;;;;;;;7.20;71.50;;;;;;6071724;23;20343;-80
2021/12/16 10:53:38;;;;;;;;;;;7.30;70.70;;;;;;6067270;23;19930;-80
2021/12/16 10:56:05;;;;;;;;;;;7.40;69.10;;;;;;6090785;23;19925;-80
2021/12/16 10:58:51;;;;;;;;;;;7.60;69.10;;;;;;6071242;23;20399;-78
2021/12/16 11:01:38;;;;;;;;;;;7.60;67.30;;;;;;6067256;23;19925;-80
2021/12/16 11:04:08;;;;;;;;;;;7.70;67.30;;;;;;6071445;23;19929;-80
2021/12/16 11:06:38;;;;;;;;;;;7.90;67.20;;;;;;6073195;23;19928;-80
2021/12/16 11:09:23;;;;;;;;;;;8.10;66.70;;;;;;6071590;23;19997;-80
2021/12/16 11:12:09;;;;;;;;;;;8.30;66.50;;;;;;6097688;23;19926;-79
2021/12/16 11:14:37;;;;;;;;;;;8.30;64.80;;;;;;6107045;23;19925;-80
2021/12/16 11:17:05;;;;;;;;;;;8.50;64.20;;;;;;6070498;23;19929;-80
2021/12/16 11:19:39;;;;;;;;;;;8.60;64.80;;;;;;6073865;23;19934;-80
2021/12/16 11:22:07;;;;;;;;;;;8.70;64.00;;;;;;6067719;23;19922;-80
2021/12/16 11:24:34;;;;;;;;;;;8.90;63.80;;;;;;6073201;23;20004;-78
2021/12/16 11:27:18;;;;;;;;;;;9.00;63.10;;;;;;6078845;23;19926;-80
2021/12/16 11:29:45;;;;;;;;;;;9.10;62.60;;;;;;6076326;23;19921;-80
2021/12/16 12:22:38;;;;;;;;;;;10.30;59.00;;;;;;6031278;23;19906;-80
2021/12/16 13:25:37;;;;;;;;;;;11.00;56.70;;;;;;6020914;23;19954;-80
2021/12/16 13:27:57;;;;;;;;;;;11.00;56.40;;;;;;6019497;23;20251;-77
2021/12/16 13:30:27;;;;;;;;;;;11.00;56.40;;;;;;6014119;23;19926;-80
2021/12/16 13:35:51;;;;;;;;;;;11.00;56.50;;;;;;6012293;23;19961;-77
2021/12/16 13:38:20;;;;;;;;;;;11.00;56.30;;;;;;6022563;23;20367;-79
2021/12/16 13:40:48;;;;;;;;;;;10.90;56.50;;;;;;6022151;23;19922;-78
2021/12/16 13:43:19;;;;;;;;;;;10.90;56.40;;;;;;5995006;23;19926;-79
2021/12/16 14:03:42;;;;;;;;;;;10.70;57.00;;;;;;6011320;23;19988;-78
2021/12/16 14:08:38;;;;;;;;;;;10.60;57.30;;;;;;6011992;23;19926;-79
2021/12/16 14:14:21;;;;;;;;;;;10.60;57.30;;;;;;6012061;23;19929;-77
2021/12/16 14:41:25;;;;;;;;;;;10.50;58.00;;;;;;6041489;23;20480;-80
2021/12/16 14:47:13;;;;;;;;;;;10.40;58.00;;;;;;6052569;23;19926;-80
2021/12/16 14:49:38;;;;;;;;;;;10.40;58.00;;;;;;6044980;23;19925;-79
2021/12/16 14:52:12;;;;;;;;;;;10.30;58.00;;;;;;6050116;23;19926;-78
2021/12/16 14:54:50;;;;;;;;;;;10.20;58.20;;;;;;6044463;23;20446;-80
2021/12/16 14:57:28;;;;;;;;;;;10.20;58.80;;;;;;6039016;23;19973;-78
2021/12/16 14:59:55;;;;;;;;;;;10.10;58.80;;;;;;6045212;23;19930;-77
2021/12/16 15:02:26;;;;;;;;;;;10.10;59.20;;;;;;6041139;23;19929;-79
2021/12/16 15:04:53;;;;;;;;;;;10.00;59.10;;;;;;6045151;23;20000;-78
2021/12/16 15:07:22;;;;;;;;;;;10.00;59.30;;;;;;6042805;23;19926;-78
2021/12/16 15:09:48;;;;;;;;;;;9.90;59.50;;;;;;6043447;23;20367;-78
2021/12/16 15:37:16;;;;;;;;;;;8.50;64.20;;;;;;6040585;23;19922;-79
2021/12/16 15:42:53;;;;;;;;;;;8.00;65.50;;;;;;6023749;23;20458;-79
2021/12/16 15:45:22;;;;;;;;;;;7.90;66.50;;;;;;6044863;23;19926;-79
2021/12/16 15:48:10;;;;;;;;;;;7.70;67.10;;;;;;6069375;23;19957;-78
2021/12/16 15:50:39;;;;;;;;;;;7.50;67.80;;;;;;6020410;23;19922;-77
2021/12/16 15:53:08;;;;;;;;;;;7.40;67.80;;;;;;6044602;23;19925;-80
2021/12/16 15:55:40;;;;;;;;;;;7.20;67.80;;;;;;6049048;23;20351;-80
2021/12/16 15:58:13;;;;;;;;;;;7.10;68.70;;;;;;6044806;23;19973;-79
2021/12/16 16:00:42;;;;;;;;;;;7.00;68.50;;;;;;6049231;23;19921;-80
2021/12/16 16:03:11;;;;;;;;;;;6.90;68.50;;;;;;6051101;23;19973;-77
2021/12/16 16:05:39;;;;;;;;;;;6.80;68.50;;;;;;6019552;23;20329;-80
2021/12/16 16:08:08;;;;;;;;;;;6.70;68.50;;;;;;6023846;23;19922;-78
2021/12/16 16:10:36;;;;;;;;;;;6.60;69.20;;;;;;6023645;23;19957;-77
2021/12/16 16:13:21;;;;;;;;;;;6.50;70.40;;;;;;6041817;23;19929;-78
2021/12/16 16:15:49;;;;;;;;;;;6.40;71.20;;;;;;6071057;23;19944;-80
2021/12/16 16:21:18;;;;;;;;;;;6.10;70.80;;;;;;6076752;23;19982;-78
2021/12/16 16:23:52;;;;;;;;;;;5.90;71.20;;;;;;6048074;23;19921;-77
2021/12/16 16:26:21;;;;;;;;;;;5.80;71.60;;;;;;6071901;23;19925;-78
2021/12/16 16:28:49;;;;;;;;;;;5.80;71.70;;;;;;6048810;23;19929;-77
2021/12/16 16:31:18;;;;;;;;;;;5.60;72.40;;;;;;6053277;23;19949;-78
2021/12/16 16:33:45;;;;;;;;;;;5.50;73.90;;;;;;6047453;23;19977;-77
2021/12/16 16:36:13;;;;;;;;;;;5.30;73.80;;;;;;6069217;23;19922;-79
2021/12/16 16:38:42;;;;;;;;;;;5.30;73.80;;;;;;6045908;23;19969;-78
2021/12/16 16:41:12;;;;;;;;;;;5.20;74.30;;;;;;6039352;23;19943;-78
2021/12/16 16:43:40;;;;;;;;;;;5.10;74.20;;;;;;6048970;23;20232;-79
2021/12/16 16:46:19;;;;;;;;;;;5.00;74.10;;;;;;6052370;23;19929;-78
2021/12/16 16:51:30;;;;;;;;;;;4.80;74.40;;;;;;6076129;23;19945;-79
2021/12/16 16:54:00;;;;;;;;;;;4.70;74.80;;;;;;6051442;23;20232;-78
2021/12/16 16:56:50;;;;;;;;;;;4.70;75.00;;;;;;6047865;23;19986;-79
2021/12/16 16:59:30;;;;;;;;;;;4.40;75.80;;;;;;6034943;23;20722;-78
2021/12/16 17:02:01;;;;;;;;;;;4.00;76.90;;;;;;6046907;23;19929;-80
2021/12/16 17:04:32;;;;;;;;;;;3.90;76.90;;;;;;6052615;23;19949;-79
2021/12/16 17:06:59;;;;;;;;;;;3.90;76.40;;;;;;6042365;23;19980;-79
2021/12/16 17:09:31;;;;;;;;;;;3.80;77.40;;;;;;6048161;23;19932;-78
2021/12/16 17:11:58;;;;;;;;;;;3.90;78.20;;;;;;6057953;23;19921;-79
2021/12/16 17:14:34;;;;;;;;;;;3.80;77.40;;;;;;6046720;23;19921;-80
2021/12/16 17:20:02;;;;;;;;;;;3.70;77.50;;;;;;6058232;23;19921;-80
2021/12/16 17:22:40;;;;;;;;;;;3.60;78.80;;;;;;6046807;23;19921;-78
2021/12/16 17:25:08;;;;;;;;;;;3.60;79.00;;;;;;6041058;23;20236;-78
2021/12/16 17:27:37;;;;;;;;;;;3.50;78.90;;;;;;6076351;23;19921;-80
2021/12/16 17:30:20;;;;;;;;;;;3.50;78.90;;;;;;6073446;23;19926;-79
2021/12/16 17:32:49;;;;;;;;;;;3.40;78.80;;;;;;6046141;23;19922;-80
2021/12/16 17:35:24;;;;;;;;;;;3.30;79.30;;;;;;6044320;23;19926;-80
2021/12/16 17:37:59;;;;;;;;;;;3.30;79.00;;;;;;6043012;23;19930;-79
2021/12/16 17:40:25;;;;;;;;;;;3.20;78.70;;;;;;6072650;23;20787;-78
2021/12/16 17:42:54;;;;;;;;;;;3.20;78.70;;;;;;6047686;23;20394;-80
2021/12/16 17:45:30;;;;;;;;;;;3.10;78.70;;;;;;6068089;23;19929;-80
2021/12/16 17:47:58;;;;;;;;;;;3.00;78.60;;;;;;6046068;23;19929;-79
2021/12/16 17:50:26;;;;;;;;;;;3.00;79.10;;;;;;6072855;23;19922;-80
2021/12/16 17:52:55;;;;;;;;;;;2.90;78.90;;;;;;6045317;23;20374;-78
2021/12/16 17:55:30;;;;;;;;;;;2.90;78.70;;;;;;6043133;23;20340;-78
2021/12/16 17:58:01;;;;;;;;;;;2.90;78.80;;;;;;6043686;23;19921;-79
2021/12/16 18:00:34;;;;;;;;;;;2.80;79.20;;;;;;6046222;23;19926;-79
2021/12/16 18:03:02;;;;;;;;;;;2.80;80.40;;;;;;6045659;23;20358;-78
2021/12/16 18:05:39;;;;;;;;;;;2.80;80.10;;;;;;6043091;23;20442;-79
2021/12/16 18:08:06;;;;;;;;;;;2.80;80.70;;;;;;6047828;23;20339;-79
2021/12/16 18:10:33;;;;;;;;;;;2.80;81.60;;;;;;6043982;23;19921;-78
2021/12/16 18:13:00;;;;;;;;;;;2.70;81.70;;;;;;6045849;23;19921;-78
2021/12/16 18:15:28;;;;;;;;;;;2.40;82.90;;;;;;6070756;23;19925;-78
2021/12/16 18:18:15;;;;;;;;;;;2.30;83.70;;;;;;6045230;23;19921;-79
2021/12/16 18:20:42;;;;;;;;;;;2.20;83.00;;;;;;6050835;23;19925;-79
2021/12/16 18:23:12;;;;;;;;;;;2.20;82.60;;;;;;6043748;23;20381;-80
2021/12/16 18:25:43;;;;;;;;;;;2.20;82.60;;;;;;6067770;23;19925;-80
2021/12/16 18:28:10;;;;;;;;;;;2.20;82.90;;;;;;6068224;23;20340;-80
2021/12/16 18:30:38;;;;;;;;;;;2.10;83.80;;;;;;6046756;23;20258;-79
2021/12/16 18:33:09;;;;;;;;;;;2.20;83.70;;;;;;6045078;23;20000;-78
2021/12/16 18:35:38;;;;;;;;;;;2.20;83.60;;;;;;6047531;23;19925;-79
2021/12/16 18:38:13;;;;;;;;;;;2.20;84.10;;;;;;6043476;23;19929;-79
2021/12/16 18:40:42;;;;;;;;;;;2.20;84.10;;;;;;6043528;23;19953;-78
2021/12/16 18:43:09;;;;;;;;;;;2.30;84.30;;;;;;6046899;23;20362;-80
2021/12/16 18:45:38;;;;;;;;;;;2.30;83.80;;;;;;6045203;23;19926;-79
2021/12/16 18:48:15;;;;;;;;;;;2.30;83.80;;;;;;6043558;23;19932;-80
2021/12/16 18:56:25;;;;;;;69.93;41.67;;;2.40;85.60;;;;;;6067578;23;19922;-79
2021/12/16 18:58:53;;;;;;;67.93;41.70;;;2.40;85.50;;;;;;6071646;23;20029;-79
2021/12/16 19:01:25;;;;;;;56.85;34.83;;;2.30;84.80;;;;;;6070287;23;20031;-79
2021/12/16 19:03:53;;;;;;;58.47;36.70;;;2.10;84.10;;;;;;6045748;23;20027;-80
2021/12/16 19:06:25;;;;;;;63.67;37.15;;;2.00;84.90;;;;;;6046343;23;20031;-78
2021/12/16 19:08:55;;;;;;;51.55;34.17;;;1.90;85.80;;;;;;6046718;23;20050;-78
2021/12/16 19:11:28;;;;;;;48.22;33.13;;;1.80;85.10;;;;;;6044041;23;20361;-79
2021/12/16 19:13:56;;;;;;;48.83;30.58;;;1.80;85.00;;;;;;6075270;23;20364;-79
2021/12/16 19:16:23;;;;;;;;;;;1.70;85.20;;;;;;6072086;23;20023;-78
2021/12/16 19:18:51;;;;;;;;;;;1.60;85.30;;;;;;6075538;23;19917;-79
2021/12/16 19:21:38;;;;;;;;;;;1.60;84.90;;;;;;6075794;23;19972;-79
2021/12/16 19:24:06;;;;;;;;;;;1.60;84.50;;;;;;6046962;23;20403;-79
2021/12/16 19:26:39;;;;;;;;;;;1.50;84.70;;;;;;6073723;23;20387;-78
2021/12/16 19:29:06;;;;;;;;;;;1.50;85.70;;;;;;6045331;23;19941;-80
2021/12/16 19:31:33;;;;;;;;;;;1.50;85.20;;;;;;6049526;23;19941;-78
2021/12/16 19:34:04;;;;;;;;;;;1.40;86.00;;;;;;6047268;23;20339;-79
2021/12/16 19:36:31;;;;;;;;;;;1.40;85.60;;;;;;6045651;23;19928;-80
2021/12/16 19:38:58;;;;;;;;;;;1.40;85.50;;;;;;6067996;23;20346;-80
2021/12/16 19:41:26;;;;;;;;;;;1.40;86.70;;;;;;6043645;23;19929;-78
2021/12/16 19:43:53;;;;;;;;;;;1.40;86.20;;;;;;6046647;23;19917;-79
2021/12/16 19:46:21;;;;;;;;;;;1.40;87.40;;;;;;6045990;23;19926;-78
2021/12/16 19:48:52;;;;;;;;;;;1.40;86.90;;;;;;6045371;23;19921;-79
2021/12/16 19:51:20;;;;;;;;;;;1.40;86.90;;;;;;6069137;23;19921;-80
2021/12/16 19:53:48;;;;;;;;;;;1.40;87.00;;;;;;6045180;23;19968;-78
2021/12/16 19:56:16;;;;;;;;;;;1.30;86.80;;;;;;6043751;23;19989;-80
2021/12/16 19:58:45;;;;;;;;;;;1.30;86.20;;;;;;6066923;23;20039;-81
2021/12/16 20:01:14;;;;;;;;;;;1.10;86.40;;;;;;6044452;23;19917;-80
2021/12/16 20:03:43;;;;;;;;;;;1.10;85.50;;;;;;6041837;23;19992;-80
2021/12/16 20:06:11;;;;;;;;;;;1.10;86.00;;;;;;6043792;23;20331;-80
2021/12/16 20:08:41;;;;;;;;;;;1.00;85.80;;;;;;6066180;23;19940;-80
2021/12/16 20:11:10;;;;;;;;;;;0.90;85.50;;;;;;6043029;23;19918;-80
2021/12/16 20:13:38;;;;;;;;;;;0.90;85.30;;;;;;6067485;23;20407;-79
2021/12/16 20:16:09;;;;;;;;;;;0.80;85.10;;;;;;6044942;23;19925;-81
2021/12/16 20:18:36;;;;;;;;;;;0.80;85.00;;;;;;6066504;23;20322;-79
2021/12/16 20:21:16;;;;;;;;;;;0.70;85.00;;;;;;6042511;23;19925;-78
2021/12/16 20:23:43;;;;;;;;;;;0.70;85.30;;;;;;6042937;23;20340;-77
2021/12/16 20:26:12;;;;;;;;;;;0.70;86.20;;;;;;6069046;23;19917;-80
2021/12/16 20:28:51;;;;;;;;;;;0.70;86.20;;;;;;6067853;23;19924;-78
2021/12/16 20:31:21;;;;;;;;;;;0.60;86.10;;;;;;6068866;23;19918;-78
2021/12/16 20:33:57;;;;;;;;;;;0.60;86.10;;;;;;6042281;23;19921;-77
2021/12/16 20:36:30;;;;;;;;;;;0.60;85.90;;;;;;6067650;23;19918;-78
2021/12/16 20:39:02;;;;;;;;;;;0.60;85.90;;;;;;6067892;23;19981;-80
2021/12/16 20:41:32;;;;;;;;;;;0.60;86.30;;;;;;6068992;23;20228;-78
2021/12/16 20:44:02;;;;;;;;;;;0.50;85.90;;;;;;6067790;23;19917;-79
2021/12/16 20:46:31;;;;;;;;;;;0.50;86.30;;;;;;6068482;23;19917;-78
2021/12/16 20:49:04;;;;;;;;;;;0.50;87.70;;;;;;6043299;23;19917;-78